Ashland, Kentucky
Current Conditions -  °F | °C
As of 12:51 AM on Wednesday 28 Jan 2015 (Local Time) from KHTS Reporting Station
Overcast Overcast  
Wind Chill: 13°   Ceiling: 2500
Heat Index: 21°   Visibility: 10mi
Dew Point: 13°   Wind: 6mph
Humidity: 71%   Direction: 310°NW
Pressure: 30.23"   Gusts: NA
Location:  38.48°N, 82.64°W
Report Text: KHTS 280551Z 31005KT 10SM OVC025 M06/M11 A3023 RMK AO2 SLP247 T10611106 11050 21061 51010 $
Loading
Personal Weather Stations






























Interactive Weather Map New forecast layout! Learn more

10-Day Weather Forecast

Advertisements
Track Severe Weather on mobile